Time;durP1;ratioP1;P1;durP2;ratioP2;P2;SDS_P1;SDS_P2;PMS_P1;PMS_P2;Temp;Humidity;BMP_temperature;BMP_pressure;BME280_temperature;BME280_humidity;BME280_pressure;Samples;Min_cycle;Max_cycle;Signal;HPM_P1;HPM_P2
2022/07/02 00:17:53;;;;;;;;;;;;;;;;;;;;;
2022/07/02 00:59:22;;;;;;;;;;;;;;;;;;;;;
2022/07/02 03:17:23;;;;;;;;;;;;;;;;;;;;;
2022/07/02 05:15:10;;;;;;;;;;;;;;;;;;;;;
2022/07/02 06:33:45;;;;;;;;;;;;;;;;;;;;;
2022/07/02 06:43:26;;;;;;;;;;;;;;;;;;;;;
2022/07/02 06:46:19;;;;;;;1.20;1.00;;;27.20;48.60;;;;;;5861632;24;20408;-83
2022/07/02 06:49:03;;;;;;;2.77;1.20;;;27.20;48.60;;;;;;5863134;24;20396;-83
2022/07/02 06:51:29;;;;;;;1.40;1.20;;;27.20;48.70;;;;;;5861598;24;20446;-84
2022/07/02 06:54:03;;;;;;;1.77;1.40;;;27.20;48.60;;;;;;5838975;24;20417;-84
2022/07/02 06:56:57;;;;;;;3.13;1.50;;;27.30;48.70;;;;;;5861730;24;20628;-83
2022/07/02 06:59:52;;;;;;;1.50;1.30;;;27.30;48.60;;;;;;5913043;23;20537;-83
2022/07/02 07:19:31;;;;;;;1.70;1.60;;;27.20;48.70;;;;;;5944094;24;20505;-83
2022/07/02 07:22:23;;;;;;;;;;;;;;;;;;;;;
2022/07/02 07:38:45;;;;;;;1.00;0.90;;;27.20;48.60;;;;;;5861964;24;20437;-83
2022/07/02 07:41:56;;;;;;;1.23;0.97;;;27.20;48.70;;;;;;5834947;24;20420;-83
2022/07/02 07:48:44;;;;;;;1.80;1.17;;;27.10;48.70;;;;;;5857448;24;20482;-80
2022/07/02 07:54:50;;;;;;;1.50;1.20;;;27.10;48.60;;;;;;5860576;24;20370;-84
2022/07/02 07:58:08;;;;;;;1.27;1.17;;;27.10;48.60;;;;;;5839282;24;20409;-82
2022/07/02 08:08:15;;;;;;;;;;;;;;;;;;;;;
2022/07/02 08:13:46;;;;;;;1.40;1.10;;;27.10;48.50;;;;;;5860875;24;20365;-82
2022/07/02 08:16:50;;;;;;;;;;;;;;;;;;;;;
2022/07/02 08:26:28;;;;;;;1.87;1.40;;;27.10;48.60;;;;;;5942840;24;20383;-84
2022/07/02 08:29:03;;;;;;;1.87;1.30;;;27.10;48.50;;;;;;6057224;23;20387;-81
2022/07/02 08:31:32;;;;;;;1.43;1.33;;;27.10;48.50;;;;;;6034813;23;20390;-81
2022/07/02 08:34:01;;;;;;;1.17;1.07;;;27.10;48.40;;;;;;6037286;23;20394;-82
2022/07/02 08:36:35;;;;;;;1.10;1.00;;;27.10;48.20;;;;;;6058752;23;20383;-81
2022/07/02 08:39:01;;;;;;;1.10;1.00;;;27.10;48.30;;;;;;6009661;23;20438;-82
2022/07/02 08:41:32;;;;;;;1.10;1.00;;;27.10;48.30;;;;;;6111132;23;20385;-83
2022/07/02 08:44:04;;;;;;;1.40;1.10;;;27.10;48.20;;;;;;6115683;23;20146;-83
2022/07/02 08:46:36;;;;;;;1.50;1.30;;;27.10;47.60;;;;;;6113211;23;20437;-83
2022/07/02 08:49:05;;;;;;;1.60;1.30;;;27.10;47.20;;;;;;6119110;23;20404;-83
2022/07/02 08:51:34;;;;;;;1.33;1.07;;;27.10;46.80;;;;;;6144272;23;20377;-83
2022/07/02 08:54:01;;;;;;;3.10;1.47;;;27.10;46.90;;;;;;6117790;23;21054;-83
2022/07/02 08:56:42;;;;;;;1.20;1.10;;;27.00;46.90;;;;;;6142945;23;20386;-83
2022/07/02 08:59:08;;;;;;;1.33;1.07;;;27.00;46.70;;;;;;6116754;23;20424;-83
2022/07/02 09:01:33;;;;;;;2.40;1.13;;;27.00;46.40;;;;;;6117759;23;20388;-83
2022/07/02 09:04:04;;;;;;;1.57;1.20;;;27.00;46.60;;;;;;6116830;23;20157;-83
2022/07/02 09:06:35;;;;;;;1.30;1.07;;;27.00;46.50;;;;;;6142899;23;20368;-83
2022/07/02 09:09:01;;;;;;;1.27;1.00;;;27.00;46.50;;;;;;6117151;23;20409;-83
2022/07/02 09:11:31;;;;;;;3.17;1.00;;;27.00;46.50;;;;;;6116630;23;20399;-83
2022/07/02 09:14:00;;;;;;;1.90;1.20;;;27.00;46.40;;;;;;6144165;23;20149;-83
2022/07/02 09:16:28;;;;;;;1.60;1.00;;;27.00;46.40;;;;;;6146322;23;20383;-83
2022/07/02 09:18:57;;;;;;;1.37;1.03;;;27.00;46.20;;;;;;6096355;23;20429;-83
2022/07/02 09:21:23;;;;;;;2.30;1.03;;;26.90;46.10;;;;;;6120344;23;20377;-83
2022/07/02 09:23:55;;;;;;;1.10;1.00;;;26.90;46.00;;;;;;6145824;23;20396;-83
2022/07/02 09:26:22;;;;;;;1.20;1.10;;;26.90;46.00;;;;;;6119151;23;20179;-83
2022/07/02 09:28:59;;;;;;;1.87;1.03;;;27.00;46.30;;;;;;6096354;23;20385;-83
2022/07/02 09:31:49;;;;;;;1.10;1.00;;;26.90;46.20;;;;;;6119619;23;20479;-83
2022/07/02 09:34:27;;;;;;;1.33;1.10;;;27.00;46.40;;;;;;6144932;23;20377;-82
2022/07/02 09:36:56;;;;;;;1.90;1.30;;;27.00;46.10;;;;;;6119052;23;20389;-82
2022/07/02 09:39:34;;;;;;;1.00;0.90;;;26.90;46.10;;;;;;6118992;23;20428;-82
2022/07/02 09:42:00;;;;;;;1.17;1.03;;;26.90;45.90;;;;;;6120037;23;20372;-83
2022/07/02 09:44:26;;;;;;;1.30;1.10;;;26.90;46.00;;;;;;6144741;23;20385;-83
2022/07/02 09:47:28;;;;;;;1.40;1.30;;;26.90;46.00;;;;;;6119499;23;20391;-83
2022/07/02 09:49:56;;;;;;;1.50;1.20;;;26.90;46.10;;;;;;6145292;23;20471;-83
2022/07/02 09:52:22;;;;;;;3.20;1.10;;;26.90;46.00;;;;;;6120147;23;20381;-83
2022/07/02 09:54:48;;;;;;;1.67;1.00;;;26.90;45.70;;;;;;6144129;23;20416;-83
2022/07/02 09:57:17;;;;;;;1.40;1.07;;;26.90;45.30;;;;;;6145458;23;20508;-83
2022/07/02 10:00:24;;;;;;;2.80;1.23;;;26.90;45.80;;;;;;6143838;23;20187;-84
2022/07/02 10:02:52;;;;;;;1.33;0.93;;;26.90;45.90;;;;;;6056411;23;20383;-83
2022/07/02 10:05:35;;;;;;;1.37;1.13;;;26.90;45.90;;;;;;6055711;23;20375;-83
2022/07/02 10:08:13;;;;;;;1.77;1.07;;;26.90;45.50;;;;;;6032304;23;20400;-83
2022/07/02 10:10:45;;;;;;;1.50;1.10;;;26.90;45.50;;;;;;6032897;23;20375;-83
2022/07/02 10:13:23;;;;;;;1.33;1.17;;;26.90;45.30;;;;;;6031640;23;20372;-83
2022/07/02 10:15:54;;;;;;;1.70;1.10;;;26.90;45.30;;;;;;6011295;23;20841;-83
2022/07/02 10:18:24;;;;;;;1.90;1.20;;;26.90;44.90;;;;;;6032848;23;20451;-83
2022/07/02 10:20:56;;;;;;;1.30;1.00;;;26.90;44.80;;;;;;6056047;23;20419;-83
2022/07/02 10:23:23;;;;;;;1.20;1.00;;;26.90;44.70;;;;;;6056243;23;20455;-83
2022/07/02 10:25:51;;;;;;;2.00;1.30;;;26.90;45.00;;;;;;6056472;23;20403;-83
2022/07/02 10:28:25;;;;;;;2.23;1.13;;;26.90;45.30;;;;;;6057117;23;20777;-83
2022/07/02 10:30:59;;;;;;;1.37;1.10;;;26.90;45.20;;;;;;6056453;23;20368;-83
2022/07/02 10:34:10;;;;;;;1.97;1.17;;;26.90;45.20;;;;;;6032262;23;20419;-83
2022/07/02 10:36:39;;;;;;;2.27;1.43;;;26.90;44.80;;;;;;6040103;23;20391;-83
2022/07/02 10:39:16;;;;;;;1.50;1.00;;;26.80;44.70;;;;;;6061465;23;20428;-82
2022/07/02 10:42:06;;;;;;;1.30;1.17;;;26.80;44.90;;;;;;6145262;23;20353;-82
2022/07/02 10:45:00;;;;;;;;;;;;;;;;;;;;;
2022/07/02 10:54:35;;;;;;;1.20;1.07;;;26.80;44.90;;;;;;5999738;24;20393;-84
2022/07/02 10:57:17;;;;;;;1.23;1.13;;;26.80;45.00;;;;;;5999335;23;20395;-83
2022/07/02 10:59:43;;;;;;;2.10;1.23;;;26.80;45.00;;;;;;6003951;23;20428;-85
2022/07/02 11:02:14;;;;;;;1.23;1.13;;;26.90;45.10;;;;;;6003278;23;20397;-83
2022/07/02 11:08:02;;;;;;;1.00;0.90;;;26.90;45.40;;;;;;6023216;23;20476;-82
2022/07/02 11:10:29;;;;;;;2.57;1.30;;;26.90;45.30;;;;;;6003936;23;20384;-82
2022/07/02 11:13:10;;;;;;;1.30;1.03;;;26.90;45.30;;;;;;6002746;23;20385;-84
2022/07/02 11:15:39;;;;;;;1.40;1.20;;;26.90;45.40;;;;;;6003707;23;20481;-83
2022/07/02 11:18:15;;;;;;;1.57;1.13;;;26.90;45.50;;;;;;6027615;23;20367;-81
2022/07/02 11:21:03;;;;;;;1.37;1.10;;;26.90;45.00;;;;;;6027659;23;20408;-83
2022/07/02 11:23:29;;;;;;;1.17;1.07;;;26.90;45.10;;;;;;6002201;23;20391;-83
2022/07/02 11:26:08;;;;;;;1.67;1.17;;;26.90;44.90;;;;;;6029526;23;20380;-83
2022/07/02 11:28:36;;;;;;;1.37;1.23;;;26.90;44.70;;;;;;6141568;23;20212;-83
2022/07/02 11:31:04;;;;;;;1.30;1.20;;;26.90;44.40;;;;;;6143929;23;20381;-83
2022/07/02 11:33:35;;;;;;;3.20;1.40;;;26.90;44.40;;;;;;6145278;23;20377;-83
2022/07/02 11:36:03;;;;;;;2.60;1.03;;;26.90;44.30;;;;;;6118711;23;20381;-83
2022/07/02 11:41:59;;;;;;;3.73;1.50;;;26.90;44.20;;;;;;6133561;23;20436;-83
2022/07/02 11:44:32;;;;;;;1.70;1.37;;;26.90;44.40;;;;;;6143216;23;20376;-81
2022/07/02 11:47:01;;;;;;;1.60;1.20;;;26.90;44.50;;;;;;6140701;23;20354;-80
2022/07/02 11:49:32;;;;;;;1.20;1.00;;;26.90;44.40;;;;;;6113960;23;20412;-80
2022/07/02 11:52:03;;;;;;;2.13;1.30;;;26.90;44.40;;;;;;6113794;23;20396;-81
2022/07/02 11:54:32;;;;;;;1.60;1.13;;;26.90;44.40;;;;;;6114028;23;20392;-80
2022/07/02 11:56:58;;;;;;;1.70;1.10;;;26.90;44.80;;;;;;6139253;23;20377;-81
2022/07/02 11:59:25;;;;;;;1.80;1.23;;;26.90;45.00;;;;;;6112860;23;20429;-80
2022/07/02 12:01:54;;;;;;;1.43;1.23;;;26.90;45.10;;;;;;6113029;23;20160;-81
2022/07/02 12:04:22;;;;;;;1.37;1.27;;;26.90;45.10;;;;;;6139286;23;20373;-81
2022/07/02 12:07:11;;;;;;;;;;;;;;;;;;;;;
2022/07/02 12:09:47;;;;;;;1.40;1.17;;;27.00;44.60;;;;;;6138954;23;20381;-81
2022/07/02 12:12:24;;;;;;;1.67;1.00;;;27.00;44.40;;;;;;6113148;23;20832;-81
2022/07/02 12:14:52;;;;;;;1.20;1.00;;;27.00;44.50;;;;;;6112612;23;20863;-81
2022/07/02 12:17:22;;;;;;;2.07;1.10;;;27.00;44.80;;;;;;6136878;23;20417;-80
2022/07/02 12:19:53;;;;;;;1.10;1.00;;;27.00;44.40;;;;;;6112189;23;20432;-80
2022/07/02 12:22:28;;;;;;;1.20;1.10;;;27.00;44.50;;;;;;6111665;23;20369;-81
2022/07/02 12:25:11;;;;;;;;;;;;;;;;;;;;;
2022/07/02 12:27:57;;;;;;;1.20;1.10;;;27.00;44.70;;;;;;6138424;23;20385;-82
2022/07/02 12:30:23;;;;;;;1.60;1.17;;;27.00;44.40;;;;;;6112425;23;20420;-81
2022/07/02 12:33:04;;;;;;;3.60;1.20;;;27.00;44.70;;;;;;6112108;23;20388;-81
2022/07/02 12:35:31;;;;;;;1.40;1.20;;;27.00;44.20;;;;;;6111604;23;20381;-81
2022/07/02 12:37:58;;;;;;;1.97;1.40;;;27.00;44.50;;;;;;6138245;23;20380;-81
2022/07/02 12:40:24;;;;;;;1.17;1.03;;;26.90;44.60;;;;;;6112942;23;20385;-81
2022/07/02 12:42:52;;;;;;;1.10;0.90;;;27.00;44.70;;;;;;6111864;23;20395;-81
2022/07/02 12:45:35;;;;;;;1.83;1.30;;;27.00;45.00;;;;;;6112627;23;20385;-81
2022/07/02 12:48:13;;;;;;;2.07;1.20;;;27.00;44.60;;;;;;6112134;23;20380;-81
2022/07/02 12:50:51;;;;;;;1.20;1.00;;;27.00;44.60;;;;;;6114203;23;20372;-81
2022/07/02 12:53:20;;;;;;;1.10;1.00;;;27.00;44.60;;;;;;6114837;23;20404;-81
2022/07/02 12:55:58;;;;;;;1.47;1.37;;;27.00;44.70;;;;;;6141027;23;20474;-81
2022/07/02 12:58:24;;;;;;;2.33;1.30;;;27.00;44.40;;;;;;6133709;23;20437;-81
2022/07/02 13:00:54;;;;;;;1.70;1.23;;;27.00;44.60;;;;;;6110909;23;20370;-81
2022/07/02 13:03:24;;;;;;;1.20;1.10;;;27.00;44.70;;;;;;6108747;23;20480;-81
2022/07/02 13:05:52;;;;;;;1.30;1.20;;;27.00;44.50;;;;;;6111205;23;20389;-81
2022/07/02 13:08:22;;;;;;;1.73;1.00;;;27.00;44.30;;;;;;6112805;23;20400;-82
2022/07/02 13:10:53;;;;;;;2.90;1.40;;;27.00;44.10;;;;;;6114674;23;20400;-82
2022/07/02 13:13:22;;;;;;;1.10;1.00;;;27.00;44.40;;;;;;6113490;23;20417;-81
2022/07/02 13:15:50;;;;;;;2.67;1.77;;;27.00;44.10;;;;;;6114291;23;20378;-81
2022/07/02 13:18:18;;;;;;;1.30;1.10;;;27.00;43.10;;;;;;6113370;23;20432;-81
2022/07/02 13:21:36;;;;;;;1.40;1.20;;;27.00;43.10;;;;;;6111030;23;20448;-81
2022/07/02 13:24:02;;;;;;;2.00;1.80;;;27.00;43.40;;;;;;6112782;23;20374;-81
2022/07/02 13:26:28;;;;;;;1.43;0.90;;;27.00;44.00;;;;;;6112369;23;20447;-81
2022/07/02 13:28:54;;;;;;;1.83;1.10;;;27.00;43.50;;;;;;6110353;23;20389;-82
2022/07/02 13:31:22;;;;;;;1.93;1.20;;;27.00;43.90;;;;;;6108903;23;20165;-81
2022/07/02 13:33:48;;;;;;;1.90;1.10;;;27.00;44.10;;;;;;6108186;23;20173;-81
2022/07/02 13:36:27;;;;;;;1.27;0.97;;;27.00;44.10;;;;;;6109293;23;20388;-82
2022/07/02 13:38:53;;;;;;;1.10;0.90;;;27.00;43.80;;;;;;6110790;23;20182;-82
2022/07/02 13:41:31;;;;;;;1.90;1.30;;;27.00;43.80;;;;;;6111945;23;20385;-82
2022/07/02 13:44:07;;;;;;;1.20;1.00;;;27.00;44.10;;;;;;6086849;23;20381;-80
2022/07/02 13:46:42;;;;;;;1.13;1.00;;;27.00;44.20;;;;;;6111775;23;20358;-82
2022/07/02 13:49:07;;;;;;;1.87;1.00;;;27.00;44.40;;;;;;6110022;23;20397;-81
2022/07/02 13:51:58;;;;;;;1.10;1.00;;;27.00;44.50;;;;;;6111994;23;20386;-81
2022/07/02 13:54:24;;;;;;;1.10;0.97;;;27.00;44.30;;;;;;6110051;23;20154;-81
2022/07/02 13:56:55;;;;;;;1.80;1.10;;;27.00;44.40;;;;;;6110790;23;20388;-81
2022/07/02 13:59:33;;;;;;;1.20;1.00;;;27.00;44.60;;;;;;6139446;23;20400;-82
2022/07/02 14:02:04;;;;;;;1.60;1.07;;;27.00;44.50;;;;;;6114715;23;20399;-82
2022/07/02 14:04:32;;;;;;;1.97;1.27;;;27.00;44.60;;;;;;6113878;23;20373;-82
2022/07/02 14:07:12;;;;;;;;;;;;;;;;;;;;;
2022/07/02 14:09:41;;;;;;;1.97;1.20;;;27.00;44.60;;;;;;6140735;23;20380;-82
2022/07/02 14:12:23;;;;;;;2.63;1.20;;;27.00;44.70;;;;;;6114493;23;20400;-81
2022/07/02 14:14:52;;;;;;;1.20;0.97;;;27.00;44.60;;;;;;6114964;23;20385;-82
2022/07/02 14:17:18;;;;;;;1.50;1.40;;;27.10;44.30;;;;;;6115940;23;20452;-82
2022/07/02 14:19:49;;;;;;;1.90;1.37;;;27.00;44.00;;;;;;6115359;23;20424;-82
2022/07/02 14:22:18;;;;;;;2.23;1.00;;;27.10;44.10;;;;;;6115966;23;20381;-81
2022/07/02 14:24:48;;;;;;;2.70;0.90;;;27.10;44.20;;;;;;6141218;23;20373;-82
2022/07/02 14:27:14;;;;;;;1.30;1.20;;;27.10;44.20;;;;;;6116379;23;20438;-82
2022/07/02 14:29:42;;;;;;;1.63;1.10;;;27.10;44.20;;;;;;6115322;23;20468;-82
2022/07/02 14:32:08;;;;;;;1.20;1.10;;;27.10;44.20;;;;;;6141163;23;20428;-82
2022/07/02 14:34:34;;;;;;;1.33;0.97;;;27.10;44.30;;;;;;6141518;23;20373;-82
2022/07/02 14:37:04;;;;;;;1.83;1.37;;;27.10;44.30;;;;;;6141462;23;20165;-82
2022/07/02 14:39:30;;;;;;;1.50;1.40;;;27.10;44.20;;;;;;6115530;23;20180;-82
2022/07/02 14:41:56;;;;;;;1.50;1.23;;;27.10;43.90;;;;;;6115991;23;20392;-81
2022/07/02 14:44:28;;;;;;;1.80;1.17;;;27.10;43.60;;;;;;6115778;23;20381;-82
2022/07/02 14:46:56;;;;;;;2.30;1.40;;;27.10;43.60;;;;;;6115607;23;20385;-80
2022/07/02 14:49:24;;;;;;;1.43;1.20;;;27.10;43.30;;;;;;6114574;23;20389;-80
2022/07/02 14:54:41;;;;;;;1.70;1.20;;;27.10;43.70;;;;;;6142184;23;20380;-81
2022/07/02 14:57:07;;;;;;;2.03;1.20;;;27.10;43.50;;;;;;6116192;23;20416;-81
2022/07/02 14:59:41;;;;;;;2.37;1.23;;;27.10;43.60;;;;;;6116093;23;20437;-81
2022/07/02 15:02:12;;;;;;;1.30;1.00;;;27.10;43.70;;;;;;6141889;23;20130;-81
2022/07/02 15:04:43;;;;;;;3.47;1.40;;;27.10;43.70;;;;;;6142316;23;20382;-81
2022/07/02 15:07:09;;;;;;;1.50;1.40;;;27.10;43.80;;;;;;6115343;23;20377;-82
2022/07/02 15:13:07;;;;;;;1.10;1.00;;;27.10;43.80;;;;;;6139578;23;20140;-81
2022/07/02 15:18:32;;;;;;;1.10;1.00;;;27.00;44.00;;;;;;6139429;23;20447;-82
2022/07/02 15:21:40;;;;;;;3.53;1.57;;;27.00;44.10;;;;;;6112712;23;20531;-81
2022/07/02 15:30:53;;;;;;;1.43;1.33;;;27.00;44.30;;;;;;6049318;23;20357;-81
2022/07/02 15:33:52;;;;;;;1.57;1.20;;;27.00;44.40;;;;;;6049305;23;20388;-81
2022/07/02 15:39:28;;;;;;;4.53;1.23;;;27.00;44.40;;;;;;6027970;23;20431;-82
2022/07/02 15:42:04;;;;;;;4.70;1.50;;;27.00;44.50;;;;;;6026133;23;20469;-81
2022/07/02 15:44:32;;;;;;;1.30;1.20;;;27.00;44.50;;;;;;6027081;23;20425;-82
2022/07/02 15:47:22;;;;;;;1.47;1.33;;;27.10;44.60;;;;;;6049480;23;20383;-83
2022/07/02 15:49:52;;;;;;;1.67;1.40;;;27.10;44.50;;;;;;6049528;23;20404;-82
2022/07/02 15:53:09;;;;;;;1.50;1.40;;;27.00;44.50;;;;;;6026346;23;20744;-81
2022/07/02 15:59:44;;;;;;;1.40;1.20;;;27.10;44.70;;;;;;6069200;23;20537;-81
2022/07/02 16:02:29;;;;;;;1.77;1.60;;;27.10;44.60;;;;;;6118020;23;20690;-81
2022/07/02 16:05:44;;;;;;;2.67;1.60;;;27.00;44.70;;;;;;6111964;23;20389;-82
2022/07/02 16:08:23;;;;;;;1.50;1.40;;;27.00;44.70;;;;;;6135492;23;20389;-81
2022/07/02 16:31:48;;;;;;;;;;;;;;;;;;;;;
2022/07/02 16:52:13;;;;;;;1.40;1.30;;;27.00;45.20;;;;;;5967249;23;20929;-82
2022/07/02 16:54:44;;;;;;;1.50;1.30;;;27.00;45.20;;;;;;5950110;23;20374;-82
2022/07/02 16:57:21;;;;;;;1.57;1.30;;;27.00;45.20;;;;;;6029708;23;20383;-83
2022/07/02 16:59:56;;;;;;;2.77;1.50;;;27.00;45.30;;;;;;6141412;23;20408;-82
2022/07/02 17:02:24;;;;;;;1.30;1.20;;;27.00;45.20;;;;;;6115618;23;20423;-82
2022/07/02 17:24:30;;;;;;;1.43;1.30;;;27.00;45.30;;;;;;6022607;23;20392;-83
2022/07/02 17:27:06;;;;;;;1.93;1.50;;;27.00;45.40;;;;;;6004387;23;20408;-81
2022/07/02 17:44:16;;;;;;;;;;;;;;;;;;;;;
